createdAt,value
2022-11-16T00:02:49.483Z,24.67
2022-11-16T00:06:06.113Z,24.10
2022-11-16T00:09:20.899Z,24.63
2022-11-16T00:12:22.724Z,24.63
2022-11-16T00:15:37.929Z,26.33
2022-11-16T00:18:45.887Z,25.83
2022-11-16T00:22:01.946Z,24.60
2022-11-16T00:25:10.946Z,24.30
2022-11-16T00:28:25.877Z,25.00
2022-11-16T00:31:34.885Z,24.27
2022-11-16T00:34:43.394Z,25.85
2022-11-16T00:37:52.138Z,25.02
2022-11-16T00:41:06.888Z,25.92
2022-11-16T00:44:09.327Z,24.67
2022-11-16T00:47:23.969Z,26.50
2022-11-16T00:50:25.749Z,24.70
2022-11-16T00:53:41.930Z,24.40
2022-11-16T00:56:49.881Z,25.20
2022-11-16T00:59:58.507Z,25.53
2022-11-16T01:03:13.881Z,24.70
2022-11-16T01:06:23.927Z,24.42
2022-11-16T01:09:39.935Z,26.45
2022-11-16T01:12:41.861Z,27.17
2022-11-16T01:15:57.006Z,25.80
2022-11-16T01:19:06.711Z,26.87
2022-11-16T01:22:20.113Z,27.95
2022-11-16T01:25:28.920Z,25.95
2022-11-16T01:28:37.601Z,23.62
2022-11-16T01:31:45.974Z,24.27
2022-11-16T01:34:54.614Z,24.63
2022-11-16T01:38:02.925Z,26.70
2022-11-16T01:41:17.587Z,25.10
2022-11-16T01:44:55.886Z,24.15
2022-11-16T01:48:05.478Z,26.37
2022-11-16T01:51:13.948Z,24.03
2022-11-16T01:54:29.967Z,22.10
2022-11-16T01:57:37.973Z,24.77
2022-11-16T02:00:54.079Z,23.30
2022-11-16T02:03:55.823Z,23.47
2022-11-16T02:07:29.000Z,23.27
2022-11-16T02:10:54.945Z,21.55
2022-11-16T02:14:20.852Z,21.40
2022-11-16T02:17:48.926Z,22.27
2022-11-16T02:21:26.094Z,22.20
2022-11-16T02:24:52.987Z,21.87
2022-11-16T02:28:27.938Z,21.15
2022-11-16T02:31:37.880Z,23.08
2022-11-16T02:34:58.943Z,20.80
2022-11-16T02:38:25.954Z,20.73
2022-11-16T02:41:39.493Z,19.43
2022-11-16T02:44:57.918Z,20.70
2022-11-16T02:48:11.956Z,20.90
2022-11-16T02:51:22.709Z,21.23
2022-11-16T02:54:31.042Z,20.83
2022-11-16T02:57:52.937Z,20.50
2022-11-16T03:01:16.285Z,20.50
2022-11-16T03:04:34.969Z,20.62
2022-11-16T03:07:52.211Z,20.20
2022-11-16T03:11:04.951Z,19.67
2022-11-16T03:14:27.253Z,19.97
2022-11-16T03:17:37.205Z,20.90
2022-11-16T03:20:54.986Z,20.00
2022-11-16T03:23:57.085Z,19.87
2022-11-16T03:27:31.059Z,20.70
2022-11-16T03:30:47.040Z,18.87
2022-11-16T03:34:00.155Z,19.60
2022-11-16T03:37:11.031Z,20.00
2022-11-16T03:40:27.981Z,18.42
2022-11-16T03:43:31.223Z,20.27
2022-11-16T03:46:48.935Z,19.50
2022-11-16T03:49:50.814Z,20.75
2022-11-16T03:53:06.006Z,20.08
2022-11-16T03:56:07.822Z,19.23
2022-11-16T03:59:23.007Z,17.60
2022-11-16T04:02:24.865Z,19.13
2022-11-16T04:05:40.030Z,18.87
2022-11-16T04:08:42.112Z,18.15
2022-11-16T04:11:57.015Z,19.05
2022-11-16T04:14:58.751Z,18.37
2022-11-16T04:18:17.056Z,17.83
2022-11-16T04:21:30.022Z,17.48
2022-11-16T04:24:44.005Z,17.77
2022-11-16T04:27:52.989Z,18.37
2022-11-16T04:31:04.210Z,18.23
2022-11-16T04:34:12.991Z,19.87
2022-11-16T04:37:35.025Z,18.15
2022-11-16T04:40:49.981Z,17.70
2022-11-16T04:43:58.022Z,18.65
2022-11-16T04:47:06.614Z,18.27
2022-11-16T04:50:15.035Z,18.80
2022-11-16T04:53:30.255Z,20.08
2022-11-16T04:56:32.045Z,18.70
2022-11-16T04:59:48.013Z,20.23
2022-11-16T05:02:49.875Z,20.17
2022-11-16T05:06:05.021Z,19.27
2022-11-16T05:09:07.113Z,19.92
2022-11-16T05:12:29.042Z,20.95
2022-11-16T05:15:37.621Z,21.62
2022-11-16T05:18:46.030Z,23.07
2022-11-16T05:21:54.650Z,22.90
2022-11-16T05:25:03.019Z,22.87
2022-11-16T05:28:18.051Z,21.37
2022-11-16T05:31:26.053Z,21.40
2022-11-16T05:34:34.823Z,21.70
2022-11-16T05:37:43.038Z,22.17
2022-11-16T05:40:58.310Z,21.42
2022-11-16T05:44:13.033Z,21.80
2022-11-16T05:47:14.797Z,23.02
2022-11-16T05:50:30.056Z,22.03
2022-11-16T05:53:31.935Z,22.10
2022-11-16T05:56:47.027Z,22.83
2022-11-16T05:59:55.665Z,21.87
2022-11-16T06:03:04.097Z,22.42
2022-11-16T06:06:12.719Z,22.47
2022-11-16T06:09:21.028Z,19.93
2022-11-16T06:12:29.745Z,22.37
2022-11-16T06:15:38.083Z,21.83
2022-11-16T06:18:47.727Z,21.65
2022-11-16T06:22:03.082Z,23.73
2022-11-16T06:25:12.034Z,23.37
2022-11-16T06:28:21.495Z,22.70
2022-11-16T06:31:30.070Z,22.62
2022-11-16T06:34:45.021Z,21.73
2022-11-16T06:37:53.094Z,21.90
2022-11-16T06:41:08.351Z,23.10
2022-11-16T06:44:17.039Z,23.67
2022-11-16T06:47:32.063Z,23.70
2022-11-16T06:50:41.141Z,24.58
2022-11-16T06:53:56.141Z,24.23
2022-11-16T06:56:57.958Z,25.10
2022-11-16T07:00:15.085Z,23.95
2022-11-16T07:03:24.075Z,24.27
2022-11-16T07:06:39.079Z,22.85
2022-11-16T07:09:47.207Z,23.23
2022-11-16T07:12:55.675Z,23.77
2022-11-16T07:16:08.085Z,24.75
2022-11-16T07:19:23.143Z,26.42
2022-11-16T07:22:31.125Z,23.62
2022-11-16T07:25:39.705Z,23.90
2022-11-16T07:28:48.667Z,25.83
2022-11-16T07:32:04.079Z,24.63
2022-11-16T07:35:06.470Z,26.10
2022-11-16T07:38:21.083Z,25.67
2022-11-16T07:41:23.006Z,26.03
2022-11-16T07:44:38.092Z,23.60
2022-11-16T07:47:46.065Z,26.20
2022-11-16T07:50:54.651Z,25.48
2022-11-16T07:54:03.108Z,25.95
2022-11-16T07:57:11.760Z,24.80
2022-11-16T08:00:20.171Z,26.03
2022-11-16T08:03:35.832Z,26.70
2022-11-16T08:06:50.131Z,26.33
2022-11-16T08:10:05.189Z,24.67
2022-11-16T08:13:14.193Z,24.40
2022-11-16T08:16:23.144Z,25.02
2022-11-16T08:19:38.103Z,25.53
2022-11-16T08:22:53.143Z,24.35
2022-11-16T08:26:07.162Z,26.67
2022-11-16T08:29:15.830Z,25.92
2022-11-16T08:32:24.199Z,27.35
2022-11-16T08:35:41.217Z,26.27
2022-11-16T08:38:52.132Z,24.17
2022-11-16T08:42:07.306Z,27.30
2022-11-16T08:45:16.161Z,25.55
2022-11-16T08:48:31.316Z,27.40
2022-11-16T08:51:33.544Z,24.63
2022-11-16T08:54:49.121Z,25.85
2022-11-16T08:57:57.116Z,25.27
2022-11-16T09:01:15.176Z,25.25
2022-11-16T09:04:23.755Z,25.30
2022-11-16T09:07:38.268Z,26.90
2022-11-16T09:10:47.156Z,28.58
2022-11-16T09:14:03.134Z,25.02
2022-11-16T09:17:05.021Z,27.30
2022-11-16T09:20:20.142Z,25.23
2022-11-16T09:23:35.109Z,26.97
2022-11-16T09:26:43.759Z,26.58
2022-11-16T09:29:59.184Z,26.15
2022-11-16T09:33:07.982Z,25.77
2022-11-16T09:36:16.122Z,26.12
2022-11-16T09:39:38.199Z,26.40
2022-11-16T09:42:58.138Z,26.70
2022-11-16T09:46:43.151Z,27.05
2022-11-16T09:50:01.686Z,26.85
2022-11-16T09:53:22.156Z,27.23
2022-11-16T09:56:40.162Z,27.17
2022-11-16T09:59:48.135Z,27.45
2022-11-16T10:03:13.306Z,26.33
2022-11-16T10:06:25.594Z,25.42
2022-11-16T10:09:36.236Z,24.95
2022-11-16T10:12:59.249Z,24.53
2022-11-16T10:16:38.041Z,24.63
2022-11-16T10:20:16.172Z,27.15
2022-11-16T10:23:51.153Z,24.92
2022-11-16T10:27:20.777Z,28.80
2022-11-16T10:30:45.187Z,25.70
2022-11-16T10:33:58.157Z,23.67
2022-11-16T10:37:16.165Z,26.00
2022-11-16T10:40:39.942Z,23.38
2022-11-16T10:43:53.329Z,23.25
2022-11-16T10:47:12.584Z,23.67
2022-11-16T10:50:37.200Z,22.65
2022-11-16T10:53:45.882Z,26.98
2022-11-16T10:56:58.316Z,23.27
2022-11-16T11:00:22.140Z,23.08
2022-11-16T11:03:32.746Z,22.00
2022-11-16T11:06:49.293Z,23.98
2022-11-16T11:09:53.533Z,21.60
2022-11-16T11:13:23.159Z,22.45
2022-11-16T11:16:24.994Z,22.73
2022-11-16T11:19:40.232Z,22.67
2022-11-16T11:22:53.959Z,22.60
2022-11-16T11:26:10.175Z,23.15
2022-11-16T11:29:32.545Z,23.38
2022-11-16T11:32:47.241Z,21.98
2022-11-16T11:36:07.180Z,20.07
2022-11-16T11:39:43.323Z,22.08
2022-11-16T11:43:00.254Z,20.92
2022-11-16T11:46:42.210Z,25.75
2022-11-16T11:50:00.191Z,23.40
2022-11-16T11:53:33.646Z,22.43
2022-11-16T11:56:35.810Z,21.40
2022-11-16T11:59:50.428Z,23.12
2022-11-16T12:03:18.362Z,22.80
2022-11-16T12:06:43.953Z,22.15
2022-11-16T12:10:07.197Z,21.23
2022-11-16T12:13:43.670Z,21.37
2022-11-16T12:17:08.165Z,20.75
2022-11-16T12:20:43.251Z,21.37
2022-11-16T12:24:09.410Z,22.48
2022-11-16T12:27:58.225Z,22.00
2022-11-16T12:31:19.894Z,23.20
2022-11-16T12:35:04.181Z,22.52
2022-11-16T12:38:47.281Z,21.30
2022-11-16T12:42:19.236Z,21.65
2022-11-16T12:45:41.237Z,20.37
2022-11-16T12:49:29.274Z,20.25
2022-11-16T12:53:10.228Z,19.37
2022-11-16T12:56:47.535Z,19.77
2022-11-16T13:00:26.248Z,20.23
2022-11-16T13:03:43.586Z,19.23
2022-11-16T13:07:09.363Z,18.90
2022-11-16T13:10:24.427Z,21.30
2022-11-16T13:13:37.489Z,20.37
2022-11-16T13:16:47.335Z,19.50
2022-11-16T13:20:30.290Z,19.27
2022-11-16T13:24:16.289Z,18.17
2022-11-16T13:27:42.317Z,18.65
2022-11-16T13:31:08.241Z,19.30
2022-11-16T13:34:30.418Z,21.20
2022-11-16T13:37:50.236Z,19.87
2022-11-16T13:41:25.447Z,18.33
2022-11-16T13:44:36.242Z,16.85
2022-11-16T13:47:54.602Z,18.52
2022-11-16T13:51:12.294Z,17.52
2022-11-16T13:57:58.347Z,19.90
2022-11-16T14:01:17.530Z,17.25
2022-11-16T14:04:46.230Z,16.73
2022-11-16T14:08:01.311Z,17.25
2022-11-16T14:11:04.896Z,19.17
2022-11-16T14:14:40.380Z,16.30
2022-11-16T14:18:02.654Z,16.75
2022-11-16T14:21:45.478Z,16.17
2022-11-16T14:25:21.014Z,17.40
2022-11-16T14:28:45.027Z,16.60
2022-11-16T14:32:04.303Z,14.82
2022-11-16T14:35:28.297Z,16.20
2022-11-16T14:38:41.289Z,13.68
2022-11-16T14:42:07.374Z,14.23
2022-11-16T14:45:27.154Z,12.63
2022-11-16T14:48:36.269Z,13.75
2022-11-16T14:52:00.316Z,15.07
2022-11-16T14:55:13.303Z,14.35
2022-11-16T14:58:30.229Z,18.02
2022-11-16T15:01:43.363Z,18.03
2022-11-16T15:04:59.312Z,21.27
2022-11-16T15:08:03.561Z,14.70
2022-11-16T15:11:31.292Z,13.52
2022-11-16T15:14:45.291Z,14.93
2022-11-16T15:18:19.307Z,14.57
2022-11-16T15:21:23.238Z,14.25
2022-11-16T15:24:42.627Z,14.00
2022-11-16T15:27:54.328Z,13.88
2022-11-16T15:31:12.301Z,13.57
2022-11-16T15:34:27.382Z,13.87
2022-11-16T15:37:30.374Z,13.23
2022-11-16T15:40:58.321Z,15.50
2022-11-16T15:44:15.810Z,13.13
2022-11-16T15:47:25.894Z,14.35
2022-11-16T15:50:40.374Z,12.87
2022-11-16T15:53:45.486Z,14.10
2022-11-16T15:57:04.270Z,14.15
2022-11-16T16:00:23.142Z,12.30
2022-11-16T16:03:41.560Z,14.18
2022-11-16T16:07:09.334Z,12.70
2022-11-16T16:10:24.606Z,14.73
2022-11-16T16:13:37.542Z,13.18
2022-11-16T16:16:57.293Z,12.13
2022-11-16T16:20:13.307Z,13.73
2022-11-16T16:23:25.141Z,13.40
2022-11-16T16:26:40.327Z,14.45
2022-11-16T16:29:49.310Z,15.65
2022-11-16T16:32:58.136Z,13.95
2022-11-16T16:36:06.374Z,13.48
2022-11-16T16:39:28.318Z,13.03
2022-11-16T16:42:43.351Z,14.20
2022-11-16T16:45:58.322Z,16.75
2022-11-16T16:49:00.175Z,13.50
2022-11-16T16:52:19.357Z,14.18
2022-11-16T16:55:21.179Z,13.73
2022-11-16T16:58:36.326Z,12.82
2022-11-16T17:01:39.659Z,14.23
2022-11-16T17:04:54.411Z,12.80
2022-11-16T17:08:03.380Z,13.80
2022-11-16T17:11:11.910Z,12.80
2022-11-16T17:14:26.318Z,13.95
2022-11-16T17:17:41.375Z,13.98
2022-11-16T17:20:45.433Z,12.88
2022-11-16T17:24:00.327Z,12.95
2022-11-16T17:27:02.119Z,14.80
2022-11-16T17:30:17.355Z,13.75
2022-11-16T17:33:25.325Z,20.85
2022-11-16T17:36:40.353Z,13.52
2022-11-16T17:39:55.408Z,13.25
2022-11-16T17:43:10.363Z,12.03
2022-11-16T17:46:21.256Z,15.93
2022-11-16T17:49:36.394Z,13.52
2022-11-16T17:52:38.131Z,13.07
2022-11-16T17:55:53.445Z,12.20
2022-11-16T17:58:56.914Z,12.57
2022-11-16T18:02:11.367Z,11.77
2022-11-16T18:05:13.158Z,12.23
2022-11-16T18:08:28.331Z,12.32
2022-11-16T18:11:36.456Z,13.40
2022-11-16T18:15:06.275Z,13.07
2022-11-16T18:18:13.392Z,12.13
2022-11-16T18:21:21.910Z,12.90
2022-11-16T18:24:30.391Z,12.35
2022-11-16T18:27:45.369Z,14.02
2022-11-16T18:30:48.026Z,12.53
2022-11-16T18:34:02.422Z,14.60
2022-11-16T18:37:17.449Z,15.15
2022-11-16T18:40:25.376Z,13.23
2022-11-16T18:43:35.120Z,12.55
2022-11-16T18:46:44.358Z,13.63
2022-11-16T18:49:59.384Z,13.00
2022-11-16T18:53:14.407Z,12.73
2022-11-16T18:56:16.700Z,12.50
2022-11-16T18:59:31.388Z,11.27
2022-11-16T19:02:33.135Z,11.77
2022-11-16T19:05:47.392Z,11.68
2022-11-16T19:09:05.893Z,11.85
2022-11-16T19:12:20.438Z,12.60
2022-11-16T19:15:22.367Z,11.82
2022-11-16T19:18:37.385Z,12.53
2022-11-16T19:21:52.532Z,10.95
2022-11-16T19:25:05.551Z,11.43
2022-11-16T19:28:13.998Z,9.35
2022-11-16T19:31:28.397Z,7.22
2022-11-16T19:34:43.451Z,7.80
2022-11-16T19:37:52.110Z,7.03
2022-11-16T19:41:00.411Z,7.70
2022-11-16T19:44:15.469Z,7.28
2022-11-16T19:47:17.208Z,7.45
2022-11-16T19:50:32.425Z,8.23
2022-11-16T19:53:35.024Z,8.77
2022-11-16T19:56:54.854Z,8.80
2022-11-16T19:59:57.036Z,9.13
2022-11-16T20:03:11.402Z,8.30
2022-11-16T20:06:18.698Z,8.20
2022-11-16T20:09:33.400Z,8.90
2022-11-16T20:12:41.971Z,10.10
2022-11-16T20:15:50.413Z,9.57
2022-11-16T20:18:59.219Z,9.27
2022-11-16T20:22:07.424Z,7.93
2022-11-16T20:25:23.530Z,9.70
2022-11-16T20:28:25.453Z,10.15
2022-11-16T20:31:40.397Z,8.85
2022-11-16T20:34:42.238Z,11.48
2022-11-16T20:37:57.402Z,10.53
2022-11-16T20:41:10.593Z,11.07
2022-11-16T20:44:25.430Z,10.18
2022-11-16T20:47:27.198Z,10.20
2022-11-16T20:50:41.433Z,11.57
2022-11-16T20:53:44.227Z,10.50
2022-11-16T20:56:59.421Z,10.50
2022-11-16T21:00:07.465Z,10.50
2022-11-16T21:03:23.416Z,10.50
2022-11-16T21:06:32.654Z,9.57
2022-11-16T21:09:41.431Z,10.77
2022-11-16T21:12:50.046Z,9.40
2022-11-16T21:16:10.487Z,10.70
2022-11-16T21:19:25.552Z,10.15
2022-11-16T21:22:33.496Z,11.07
2022-11-16T21:25:48.478Z,10.60
2022-11-16T21:28:57.441Z,9.15
2022-11-16T21:32:12.567Z,11.38
2022-11-16T21:35:27.464Z,9.98
2022-11-16T21:38:42.469Z,9.07
2022-11-16T21:41:57.436Z,8.27
2022-11-16T21:45:07.870Z,9.70
2022-11-16T21:48:22.467Z,10.00
2022-11-16T21:51:26.223Z,11.05
2022-11-16T21:54:40.457Z,8.95
2022-11-16T21:57:48.482Z,9.13
2022-11-16T22:01:00.059Z,8.52
2022-11-16T22:04:08.451Z,9.15
2022-11-16T22:07:17.410Z,9.40
2022-11-16T22:10:25.446Z,9.52
2022-11-16T22:13:35.008Z,8.27
2022-11-16T22:16:43.487Z,7.90
2022-11-16T22:19:58.512Z,9.95
2022-11-16T22:23:00.338Z,9.77
2022-11-16T22:26:17.459Z,11.25
2022-11-16T22:29:19.188Z,10.23
2022-11-16T22:32:33.493Z,9.55
2022-11-16T22:35:43.454Z,11.00
2022-11-16T22:38:58.527Z,10.80
2022-11-16T22:42:13.467Z,12.60
2022-11-16T22:45:22.123Z,10.70
2022-11-16T22:48:34.480Z,11.00
2022-11-16T22:51:49.490Z,11.65
2022-11-16T22:54:58.110Z,12.68
2022-11-16T22:58:06.512Z,11.75
2022-11-16T23:01:21.514Z,11.43
2022-11-16T23:04:29.518Z,12.77
2022-11-16T23:07:44.477Z,12.40
2022-11-16T23:10:49.190Z,11.82
2022-11-16T23:14:05.500Z,12.32
2022-11-16T23:17:14.492Z,11.27
2022-11-16T23:20:23.424Z,11.60
2022-11-16T23:23:31.699Z,11.80
2022-11-16T23:26:46.477Z,11.85
2022-11-16T23:29:54.547Z,11.32
2022-11-16T23:33:10.518Z,12.03
2022-11-16T23:36:19.538Z,12.05
2022-11-16T23:39:28.090Z,13.18
2022-11-16T23:42:49.660Z,12.00
2022-11-16T23:45:51.472Z,12.32
2022-11-16T23:49:06.542Z,11.47
2022-11-16T23:52:14.519Z,11.00
2022-11-16T23:55:23.184Z,10.35
2022-11-16T23:58:31.573Z,11.02
